createdAt,value
2022-12-05T00:00:04.884Z,29.60
2022-12-05T00:01:04.836Z,29.60
2022-12-05T00:02:04.755Z,28.70
2022-12-05T00:03:04.656Z,29.20
2022-12-05T00:04:04.663Z,30.50
2022-12-05T00:05:04.527Z,29.50
2022-12-05T00:06:04.536Z,30.50
2022-12-05T00:07:04.428Z,29.70
2022-12-05T00:08:04.480Z,29.70
2022-12-05T00:09:04.304Z,30.10
2022-12-05T00:10:04.202Z,28.60
2022-12-05T00:11:04.170Z,30.40
2022-12-05T00:12:08.114Z,29.00
2022-12-05T00:13:04.069Z,29.50
2022-12-05T00:14:04.007Z,28.50
2022-12-05T00:15:03.907Z,29.60
2022-12-05T00:16:03.873Z,29.00
2022-12-05T00:17:03.838Z,28.40
2022-12-05T00:18:03.738Z,30.10
2022-12-05T00:19:03.652Z,29.50
2022-12-05T00:20:03.836Z,31.00
2022-12-05T00:21:03.586Z,31.30
2022-12-05T00:22:03.430Z,29.30
2022-12-05T00:23:03.398Z,30.40
2022-12-05T00:24:03.367Z,30.30
2022-12-05T00:25:03.301Z,30.80
2022-12-05T00:26:03.226Z,31.00
2022-12-05T00:27:03.165Z,30.60
2022-12-05T00:28:03.048Z,31.10
2022-12-05T00:29:03.082Z,31.70
2022-12-05T00:30:02.951Z,29.00
2022-12-05T00:31:02.883Z,29.50
2022-12-05T00:32:02.879Z,30.00
2022-12-05T00:33:02.751Z,31.10
2022-12-05T00:34:02.686Z,30.60
2022-12-05T00:35:02.632Z,32.50
2022-12-05T00:36:02.568Z,30.80
2022-12-05T00:37:02.494Z,30.80
2022-12-05T00:38:02.424Z,31.50
2022-12-05T00:39:02.371Z,30.30
2022-12-05T00:40:02.308Z,29.10
2022-12-05T00:41:02.208Z,29.30
2022-12-05T00:42:02.495Z,30.30
2022-12-05T00:43:02.102Z,30.40
2022-12-05T00:44:02.069Z,29.40
2022-12-05T00:45:01.974Z,30.20
2022-12-05T00:46:01.972Z,29.20
2022-12-05T00:47:01.872Z,28.40
2022-12-05T00:48:04.207Z,29.00
2022-12-05T00:49:01.714Z,29.50
2022-12-05T00:50:01.658Z,29.70
2022-12-05T00:51:01.585Z,29.30
2022-12-05T00:52:01.521Z,30.50
2022-12-05T00:53:01.492Z,27.80
2022-12-05T00:54:01.422Z,29.00
2022-12-05T00:55:01.363Z,29.10
2022-12-05T00:56:01.235Z,27.30
2022-12-05T00:57:01.207Z,27.40
2022-12-05T00:58:01.108Z,27.10
2022-12-05T00:59:01.100Z,27.90
2022-12-05T01:00:01.000Z,27.00
2022-12-05T01:01:00.943Z,25.90
2022-12-05T01:02:00.880Z,27.40
2022-12-05T01:03:00.815Z,27.90
2022-12-05T01:04:00.773Z,26.50
2022-12-05T01:05:00.682Z,26.90
2022-12-05T01:06:01.869Z,27.20
2022-12-05T01:07:00.563Z,27.00
2022-12-05T01:08:00.606Z,25.90
2022-12-05T01:09:00.405Z,25.90
2022-12-05T01:10:00.388Z,26.50
2022-12-05T01:11:00.308Z,26.40
2022-12-05T01:12:00.222Z,27.20
2022-12-05T01:13:00.143Z,25.90
2022-12-05T01:14:00.095Z,25.60
2022-12-05T01:15:00.026Z,26.40
2022-12-05T01:15:59.949Z,26.10
2022-12-05T01:17:00.286Z,25.40
2022-12-05T01:17:59.859Z,26.60
2022-12-05T01:18:59.782Z,25.40
2022-12-05T01:19:59.981Z,25.20
2022-12-05T01:20:59.681Z,25.60
2022-12-05T01:21:59.561Z,25.40
2022-12-05T01:22:59.526Z,25.80
2022-12-05T01:23:59.482Z,26.20
2022-12-05T01:24:59.400Z,25.10
2022-12-05T01:25:59.375Z,26.00
2022-12-05T01:26:59.313Z,25.10
2022-12-05T01:27:59.184Z,25.80
2022-12-05T01:28:59.166Z,24.70
2022-12-05T01:29:59.378Z,26.90
2022-12-05T01:30:59.015Z,26.10
2022-12-05T01:31:59.019Z,27.80
2022-12-05T01:32:58.880Z,26.20
2022-12-05T01:33:58.874Z,26.40
2022-12-05T01:34:58.751Z,25.60
2022-12-05T01:35:58.719Z,24.70
2022-12-05T01:36:58.604Z,26.40
2022-12-05T01:37:58.578Z,25.10
2022-12-05T01:38:58.553Z,25.20
2022-12-05T01:39:58.816Z,27.00
2022-12-05T01:40:58.383Z,25.30
2022-12-05T01:41:58.334Z,25.50
2022-12-05T01:42:58.262Z,24.70
2022-12-05T01:43:58.203Z,25.80
2022-12-05T01:44:58.108Z,26.50
2022-12-05T01:45:58.170Z,25.40
2022-12-05T01:46:57.952Z,25.70
2022-12-05T01:47:58.513Z,26.10
2022-12-05T01:48:57.877Z,26.70
2022-12-05T01:49:58.016Z,26.90
2022-12-05T01:50:57.742Z,26.20
2022-12-05T01:51:57.677Z,26.80
2022-12-05T01:52:57.558Z,26.70
2022-12-05T01:53:57.511Z,25.60
2022-12-05T01:54:57.434Z,27.00
2022-12-05T01:55:57.430Z,26.40
2022-12-05T01:56:57.328Z,26.40
2022-12-05T01:57:57.294Z,27.40
2022-12-05T01:58:57.231Z,26.80
2022-12-05T01:59:57.468Z,27.00
2022-12-05T02:00:57.053Z,26.40
2022-12-05T02:01:57.060Z,26.90
2022-12-05T02:02:57.013Z,27.20
2022-12-05T02:03:56.889Z,26.10
2022-12-05T02:04:56.812Z,26.10
2022-12-05T02:05:56.777Z,26.30
2022-12-05T02:06:56.662Z,26.60
2022-12-05T02:07:56.671Z,26.50
2022-12-05T02:08:56.586Z,26.70
2022-12-05T02:09:56.971Z,27.20
2022-12-05T02:10:56.427Z,28.00
2022-12-05T02:11:56.362Z,26.60
2022-12-05T02:12:56.272Z,27.20
2022-12-05T02:13:56.243Z,27.50
2022-12-05T02:14:56.171Z,27.00
2022-12-05T02:15:57.198Z,27.10
2022-12-05T02:16:56.098Z,26.50
2022-12-05T02:20:14.406Z,25.20
2022-12-05T02:21:15.352Z,26.50
2022-12-05T02:22:15.288Z,26.60
2022-12-05T02:23:15.227Z,25.60
2022-12-05T02:24:15.189Z,26.40
2022-12-05T02:25:15.141Z,28.30
2022-12-05T02:26:15.034Z,26.50
2022-12-05T02:27:14.996Z,26.80
2022-12-05T02:28:14.880Z,26.30
2022-12-05T02:29:14.813Z,26.80
2022-12-05T02:30:14.764Z,26.10
2022-12-05T02:31:14.778Z,26.00
2022-12-05T02:32:14.641Z,26.10
2022-12-05T02:33:14.592Z,26.50
2022-12-05T02:34:14.491Z,26.70
2022-12-05T02:35:14.460Z,28.10
2022-12-05T02:36:14.387Z,26.40
2022-12-05T02:37:14.304Z,28.20
2022-12-05T02:38:14.265Z,27.60
2022-12-05T02:39:14.170Z,28.20
2022-12-05T02:40:14.133Z,29.60
2022-12-05T02:41:14.091Z,29.30
2022-12-05T02:42:14.001Z,26.60
2022-12-05T02:43:13.975Z,28.60
2022-12-05T02:44:13.871Z,29.00
2022-12-05T02:45:13.804Z,29.80
2022-12-05T02:46:13.926Z,26.90
2022-12-05T02:47:13.680Z,28.30
2022-12-05T02:48:13.638Z,28.30
2022-12-05T02:49:14.040Z,28.20
2022-12-05T02:50:13.462Z,28.60
2022-12-05T02:51:13.402Z,28.70
2022-12-05T02:52:13.387Z,27.60
2022-12-05T02:53:13.266Z,28.60
2022-12-05T02:54:13.222Z,29.00
2022-12-05T02:55:13.179Z,28.10
2022-12-05T02:56:13.143Z,29.90
2022-12-05T02:57:13.030Z,29.50
2022-12-05T02:58:12.939Z,28.90
2022-12-05T02:59:14.362Z,28.90
2022-12-05T03:00:12.838Z,29.00
2022-12-05T03:01:12.844Z,29.00
2022-12-05T03:02:12.679Z,28.80
2022-12-05T03:03:12.643Z,28.20
2022-12-05T03:04:12.635Z,28.00
2022-12-05T03:05:12.508Z,28.50
2022-12-05T03:06:12.425Z,28.60
2022-12-05T03:07:12.389Z,27.00
2022-12-05T03:08:12.389Z,30.60
2022-12-05T03:09:12.237Z,29.60
2022-12-05T03:10:12.218Z,30.20
2022-12-05T03:11:12.157Z,29.70
2022-12-05T03:12:12.063Z,29.40
2022-12-05T03:13:12.016Z,29.40
2022-12-05T03:14:11.966Z,29.50
2022-12-05T03:15:11.891Z,31.10
2022-12-05T03:16:11.841Z,30.60
2022-12-05T03:17:11.769Z,29.60
2022-12-05T03:18:11.678Z,29.60
2022-12-05T03:19:11.650Z,31.40
2022-12-05T03:20:11.529Z,30.80
2022-12-05T03:21:11.455Z,31.80
2022-12-05T03:22:11.420Z,32.20
2022-12-05T03:23:11.382Z,32.30
2022-12-05T03:24:11.294Z,32.70
2022-12-05T03:25:11.214Z,32.70
2022-12-05T03:26:11.207Z,32.30
2022-12-05T03:27:11.101Z,32.80
2022-12-05T03:28:11.030Z,31.30
2022-12-05T03:29:10.943Z,33.50
2022-12-05T03:30:10.900Z,34.20
2022-12-05T03:31:11.009Z,33.70
2022-12-05T03:32:10.754Z,33.90
2022-12-05T03:33:10.712Z,35.90
2022-12-05T03:34:10.657Z,35.50
2022-12-05T03:35:10.555Z,36.20
2022-12-05T03:36:10.526Z,36.90
2022-12-05T03:37:10.480Z,35.90
2022-12-05T03:38:10.367Z,37.70
2022-12-05T03:39:10.331Z,38.00
2022-12-05T03:40:10.259Z,37.90
2022-12-05T03:41:10.172Z,38.30
2022-12-05T03:42:10.128Z,36.40
2022-12-05T03:43:10.088Z,38.30
2022-12-05T03:44:10.028Z,38.80
2022-12-05T03:45:09.930Z,37.80
2022-12-05T03:46:09.907Z,40.40
2022-12-05T03:47:09.782Z,41.00
2022-12-05T03:48:09.759Z,39.30
2022-12-05T03:49:09.719Z,40.40
2022-12-05T03:50:09.616Z,41.30
2022-12-05T03:51:09.618Z,41.90
2022-12-05T03:52:09.509Z,41.20
2022-12-05T03:53:19.589Z,42.60
2022-12-05T03:54:09.364Z,44.10
2022-12-05T03:55:09.318Z,43.70
2022-12-05T03:56:09.256Z,43.50
2022-12-05T03:57:09.190Z,42.80
2022-12-05T03:58:09.099Z,42.70
2022-12-05T03:59:09.032Z,41.80
2022-12-05T04:00:08.943Z,44.30
2022-12-05T04:01:09.021Z,43.60
2022-12-05T04:02:08.841Z,43.30
2022-12-05T04:03:08.842Z,43.10
2022-12-05T04:04:08.733Z,44.70
2022-12-05T04:05:08.649Z,44.30
2022-12-05T04:06:08.582Z,46.30
2022-12-05T04:07:08.538Z,45.70
2022-12-05T04:08:08.522Z,46.40
2022-12-05T04:09:12.381Z,45.40
2022-12-05T04:10:08.327Z,45.60
2022-12-05T04:11:08.287Z,45.00
2022-12-05T04:12:08.171Z,46.10
2022-12-05T04:13:08.150Z,46.50
2022-12-05T04:14:08.037Z,47.80
2022-12-05T04:15:08.007Z,46.70
2022-12-05T04:16:08.023Z,45.90
2022-12-05T04:17:07.897Z,48.60
2022-12-05T04:18:07.778Z,47.10
2022-12-05T04:19:07.734Z,50.10
2022-12-05T04:20:07.645Z,49.80
2022-12-05T04:21:07.614Z,50.60
2022-12-05T04:22:07.520Z,49.50
2022-12-05T04:23:07.515Z,50.90
2022-12-05T04:24:07.389Z,51.80
2022-12-05T04:25:28.338Z,51.00
2022-12-05T04:26:07.295Z,51.40
2022-12-05T04:27:07.253Z,51.80
2022-12-05T04:28:07.161Z,52.50
2022-12-05T04:29:07.115Z,51.50
2022-12-05T04:30:07.016Z,52.10
2022-12-05T04:31:07.105Z,51.80
2022-12-05T04:32:06.923Z,53.50
2022-12-05T04:33:06.857Z,54.50
2022-12-05T04:34:06.759Z,53.60
2022-12-05T04:35:06.705Z,53.20
2022-12-05T04:36:06.637Z,54.10
2022-12-05T04:37:06.618Z,53.80
2022-12-05T04:38:06.520Z,54.50
2022-12-05T04:39:06.482Z,54.00
2022-12-05T04:40:06.404Z,54.80
2022-12-05T04:41:06.328Z,55.40
2022-12-05T04:42:06.247Z,54.90
2022-12-05T04:46:33.886Z,54.80
2022-12-05T04:47:34.785Z,56.50
2022-12-05T04:48:34.724Z,54.50
2022-12-05T04:49:34.686Z,56.20
2022-12-05T04:50:34.622Z,57.20
2022-12-05T04:51:34.967Z,57.30
2022-12-05T04:52:34.489Z,56.90
2022-12-05T04:53:34.403Z,58.70
2022-12-05T04:54:34.309Z,57.40
2022-12-05T04:55:34.268Z,59.10
2022-12-05T04:56:34.184Z,57.30
2022-12-05T04:57:34.445Z,56.20
2022-12-05T04:58:34.047Z,58.10
2022-12-05T04:59:34.008Z,56.30
2022-12-05T05:00:33.924Z,56.80
2022-12-05T05:01:33.923Z,54.90
2022-12-05T05:02:33.891Z,53.40
2022-12-05T05:03:36.157Z,56.10
2022-12-05T05:04:33.683Z,52.70
2022-12-05T05:05:33.642Z,54.50
2022-12-05T05:06:33.579Z,55.50
2022-12-05T05:07:33.497Z,55.20
2022-12-05T05:08:33.423Z,56.60
2022-12-05T05:09:33.363Z,55.40
2022-12-05T05:10:33.265Z,54.60
2022-12-05T05:11:33.245Z,56.10
2022-12-05T05:12:33.140Z,58.30
2022-12-05T05:13:33.100Z,57.50
2022-12-05T05:14:33.034Z,60.30
2022-12-05T05:15:32.953Z,60.60
2022-12-05T05:16:33.043Z,60.10
2022-12-05T05:17:32.815Z,59.20
2022-12-05T05:18:32.753Z,58.70
2022-12-05T05:19:32.716Z,56.70
2022-12-05T05:20:32.670Z,56.80
2022-12-05T05:21:32.601Z,59.80
2022-12-05T05:22:32.513Z,60.70
2022-12-05T05:23:32.423Z,61.90
2022-12-05T05:24:32.415Z,60.30
2022-12-05T05:25:32.301Z,60.60
2022-12-05T05:26:32.259Z,60.90
2022-12-05T05:27:32.199Z,60.50
2022-12-05T05:28:32.123Z,62.40
2022-12-05T05:29:32.106Z,62.10
2022-12-05T05:30:32.006Z,63.80
2022-12-05T05:31:31.978Z,70.40
2022-12-05T05:32:31.873Z,71.60
2022-12-05T05:33:31.791Z,70.40
2022-12-05T05:34:31.737Z,77.20
2022-12-05T05:35:31.669Z,78.30
2022-12-05T05:36:31.579Z,75.60
2022-12-05T05:37:31.599Z,76.20
2022-12-05T05:38:31.500Z,72.80
2022-12-05T05:39:31.422Z,75.10
2022-12-05T05:40:31.371Z,71.70
2022-12-05T05:41:31.288Z,70.90
2022-12-05T05:42:31.191Z,70.00
2022-12-05T05:43:31.154Z,66.50
2022-12-05T05:44:31.087Z,67.70
2022-12-05T05:45:31.057Z,65.70
2022-12-05T05:46:31.028Z,65.10
2022-12-05T05:47:30.891Z,65.70
2022-12-05T05:48:30.850Z,65.10
2022-12-05T05:49:30.753Z,63.50
2022-12-05T05:50:30.671Z,64.20
2022-12-05T05:51:30.626Z,65.50
2022-12-05T05:52:30.564Z,64.30
2022-12-05T05:53:30.502Z,62.60
2022-12-05T05:54:30.417Z,65.30
2022-12-05T05:55:30.374Z,65.00
2022-12-05T05:56:30.278Z,66.00
2022-12-05T05:57:55.484Z,67.20
2022-12-05T05:58:30.181Z,63.90
2022-12-05T05:59:30.093Z,65.30
2022-12-05T06:00:30.101Z,63.90
2022-12-05T06:01:29.960Z,63.70
2022-12-05T06:02:29.968Z,64.80
2022-12-05T06:03:30.076Z,63.60
2022-12-05T06:04:29.852Z,63.50
2022-12-05T06:05:29.720Z,64.50
2022-12-05T06:06:29.659Z,65.00
2022-12-05T06:07:29.654Z,66.10
2022-12-05T06:08:29.559Z,67.10
2022-12-05T06:09:29.473Z,65.60
2022-12-05T06:10:29.401Z,66.10
2022-12-05T06:11:29.334Z,67.70
2022-12-05T06:12:29.266Z,67.80
2022-12-05T06:13:29.194Z,65.30
2022-12-05T06:14:29.170Z,68.40
2022-12-05T06:15:31.465Z,67.10
2022-12-05T06:16:29.094Z,68.90
2022-12-05T06:17:28.946Z,67.90
2022-12-05T06:18:28.882Z,69.00
2022-12-05T06:19:28.850Z,67.40
2022-12-05T06:20:28.754Z,67.10
2022-12-05T06:21:28.742Z,66.10
2022-12-05T06:22:28.653Z,68.90
2022-12-05T06:23:28.561Z,66.50
2022-12-05T06:24:28.473Z,67.00
2022-12-05T06:25:28.458Z,67.00
2022-12-05T06:26:28.367Z,65.40
2022-12-05T06:27:28.375Z,66.00
2022-12-05T06:28:28.233Z,65.60
2022-12-05T06:29:32.400Z,65.80
2022-12-05T06:30:28.085Z,66.20
2022-12-05T06:31:28.077Z,64.70
2022-12-05T06:32:28.025Z,64.40
2022-12-05T06:33:29.057Z,62.90
2022-12-05T06:34:28.686Z,64.40
2022-12-05T06:35:29.032Z,64.90
2022-12-05T06:36:28.689Z,67.70
2022-12-05T06:37:28.468Z,64.60
2022-12-05T06:38:27.538Z,66.60
2022-12-05T06:39:27.491Z,67.10
2022-12-05T06:40:27.671Z,66.10
2022-12-05T06:41:27.349Z,67.20
2022-12-05T06:42:27.359Z,66.60
2022-12-05T06:43:27.233Z,67.50
2022-12-05T06:44:27.171Z,66.80
2022-12-05T06:45:27.146Z,66.50
2022-12-05T06:46:27.110Z,65.90
2022-12-05T06:47:26.945Z,67.10
2022-12-05T06:48:26.894Z,65.70
2022-12-05T06:49:31.725Z,64.10
2022-12-05T06:50:26.760Z,64.00
2022-12-05T06:51:26.691Z,66.10
2022-12-05T06:52:26.620Z,64.00
2022-12-05T06:53:26.560Z,62.30
2022-12-05T06:54:26.502Z,63.40
2022-12-05T06:55:26.442Z,67.20
2022-12-05T06:56:26.370Z,65.90
2022-12-05T06:57:26.294Z,64.90
2022-12-05T06:58:26.233Z,62.90
2022-12-05T06:59:26.167Z,64.70
2022-12-05T07:00:26.131Z,62.70
2022-12-05T07:01:26.113Z,64.30
2022-12-05T07:02:26.037Z,63.40
2022-12-05T07:03:26.204Z,62.00
2022-12-05T07:04:25.873Z,60.80
2022-12-05T07:05:25.815Z,60.10
2022-12-05T07:06:25.686Z,60.90
2022-12-05T07:07:26.100Z,58.40
2022-12-05T07:08:25.615Z,56.40
2022-12-05T07:09:25.543Z,55.00
2022-12-05T07:10:25.456Z,54.30
2022-12-05T07:11:25.416Z,54.90
2022-12-05T07:12:25.319Z,55.60
2022-12-05T07:13:25.286Z,55.30
2022-12-05T07:14:46.359Z,55.50
2022-12-05T07:15:25.152Z,54.90
2022-12-05T07:16:25.115Z,54.10
2022-12-05T07:17:24.972Z,52.10
2022-12-05T07:18:24.911Z,54.40
2022-12-05T07:19:24.844Z,50.90
2022-12-05T07:20:27.900Z,50.10
2022-12-05T07:21:24.767Z,50.40
2022-12-05T07:22:24.700Z,49.40
2022-12-05T07:23:24.636Z,48.60
2022-12-05T07:24:24.563Z,47.80
2022-12-05T07:25:25.227Z,46.90
2022-12-05T07:26:24.603Z,47.50
2022-12-05T07:27:27.743Z,48.50
2022-12-05T07:28:24.285Z,47.70
2022-12-05T07:29:24.266Z,47.00
2022-12-05T07:30:24.167Z,48.80
2022-12-05T07:31:24.111Z,45.70
2022-12-05T07:32:24.102Z,48.40
2022-12-05T07:33:23.952Z,47.60
2022-12-05T07:34:23.864Z,46.60
2022-12-05T07:35:23.895Z,48.00
2022-12-05T07:36:23.762Z,48.60
2022-12-05T07:37:24.680Z,46.40
2022-12-05T07:38:23.604Z,47.10
2022-12-05T07:39:23.564Z,45.90
2022-12-05T07:40:23.536Z,44.60
2022-12-05T07:41:23.415Z,44.60
2022-12-05T07:42:23.375Z,44.20
2022-12-05T07:43:23.287Z,43.50
2022-12-05T07:44:23.252Z,41.50
2022-12-05T07:45:23.201Z,42.80
2022-12-05T07:46:23.131Z,42.60
2022-12-05T07:47:23.102Z,40.50
2022-12-05T07:48:22.985Z,39.20
2022-12-05T07:49:22.943Z,39.10
2022-12-05T07:50:22.887Z,41.20
2022-12-05T07:51:22.784Z,39.40
2022-12-05T07:52:22.730Z,39.60
2022-12-05T07:53:22.655Z,43.90
2022-12-05T07:54:22.565Z,42.80
2022-12-05T07:55:22.505Z,40.90
2022-12-05T07:56:22.477Z,40.00
2022-12-05T07:57:22.421Z,38.50
2022-12-05T07:58:22.329Z,38.30
2022-12-05T07:59:22.267Z,39.80
2022-12-05T08:00:22.178Z,37.70
2022-12-05T08:01:22.191Z,36.50
2022-12-05T08:02:22.201Z,37.10
2022-12-05T08:05:40.330Z,36.20
2022-12-05T08:06:41.327Z,38.40
2022-12-05T08:07:41.229Z,38.30
2022-12-05T08:08:41.148Z,37.50
2022-12-05T08:09:41.065Z,37.40
2022-12-05T08:10:41.027Z,35.80
2022-12-05T08:11:40.923Z,37.20
2022-12-05T08:12:40.893Z,34.40
2022-12-05T08:13:40.823Z,36.60
2022-12-05T08:14:40.866Z,36.90
2022-12-05T08:15:40.665Z,36.00
2022-12-05T08:16:40.710Z,36.30
2022-12-05T08:17:40.533Z,36.90
2022-12-05T08:18:40.533Z,37.30
2022-12-05T08:19:40.430Z,37.40
2022-12-05T08:20:40.395Z,36.00
2022-12-05T08:21:40.833Z,35.80
2022-12-05T08:22:42.854Z,35.00
2022-12-05T08:23:42.838Z,34.90
2022-12-05T08:24:41.343Z,36.00
2022-12-05T08:25:47.491Z,36.90
2022-12-05T08:26:40.098Z,36.00
2022-12-05T08:27:39.918Z,33.90
2022-12-05T08:28:39.907Z,35.70
2022-12-05T08:29:39.807Z,34.50
2022-12-05T08:30:39.778Z,36.80
2022-12-05T08:31:39.650Z,36.70
2022-12-05T08:32:39.674Z,33.80
2022-12-05T08:33:39.554Z,34.80
2022-12-05T08:34:39.478Z,32.00
2022-12-05T08:35:39.401Z,31.20
2022-12-05T08:36:39.349Z,31.10
2022-12-05T08:37:39.234Z,32.40
2022-12-05T08:38:39.173Z,30.80
2022-12-05T08:39:39.193Z,29.70
2022-12-05T08:40:39.109Z,31.40
2022-12-05T08:41:39.002Z,30.30
2022-12-05T08:42:38.914Z,32.70
2022-12-05T08:43:38.904Z,32.90
2022-12-05T08:44:38.808Z,31.60
2022-12-05T08:45:38.785Z,29.20
2022-12-05T08:46:38.787Z,27.80
2022-12-05T08:47:38.612Z,27.10
2022-12-05T08:48:38.554Z,27.30
2022-12-05T08:49:38.487Z,25.60
2022-12-05T08:50:38.443Z,32.30
2022-12-05T08:51:38.351Z,31.50
2022-12-05T08:52:38.304Z,35.00
2022-12-05T08:53:43.821Z,36.80
2022-12-05T08:54:38.160Z,38.80
2022-12-05T08:55:38.122Z,37.20
2022-12-05T08:56:38.042Z,40.20
2022-12-05T08:57:38.055Z,46.40
2022-12-05T08:58:39.123Z,46.30
2022-12-05T08:59:37.846Z,47.60
2022-12-05T09:00:37.795Z,51.30
2022-12-05T09:01:37.775Z,52.50
2022-12-05T09:02:37.652Z,52.50
2022-12-05T09:03:37.580Z,54.30
2022-12-05T09:04:37.558Z,56.30
2022-12-05T09:05:37.467Z,56.60
2022-12-05T09:06:37.391Z,55.10
2022-12-05T09:07:37.352Z,57.30
2022-12-05T09:08:37.277Z,57.70
2022-12-05T09:09:38.019Z,58.40
2022-12-05T09:10:37.251Z,57.20
2022-12-05T09:11:37.027Z,60.50
2022-12-05T09:12:37.028Z,59.90
2022-12-05T09:13:36.995Z,58.10
2022-12-05T09:14:36.868Z,63.20
2022-12-05T09:15:36.935Z,61.60
2022-12-05T09:16:38.420Z,59.00
2022-12-05T09:17:36.698Z,59.80
2022-12-05T09:18:36.733Z,57.90
2022-12-05T09:19:36.558Z,60.30
2022-12-05T09:20:36.487Z,59.80
2022-12-05T09:21:36.442Z,59.40
2022-12-05T09:22:36.357Z,58.70
2022-12-05T09:23:36.289Z,59.50
2022-12-05T09:24:36.289Z,59.10
2022-12-05T09:25:36.124Z,58.10
2022-12-05T09:26:36.083Z,57.30
2022-12-05T09:27:36.017Z,55.40
2022-12-05T09:28:35.984Z,58.40
2022-12-05T09:29:35.924Z,57.60
2022-12-05T09:30:35.803Z,58.50
2022-12-05T09:31:35.839Z,57.40
2022-12-05T09:32:35.733Z,58.30
2022-12-05T09:33:35.650Z,57.30
2022-12-05T09:34:57.997Z,59.70
2022-12-05T09:35:35.542Z,57.50
2022-12-05T09:36:35.444Z,54.70
2022-12-05T09:37:39.885Z,57.40
2022-12-05T09:38:35.362Z,54.70
2022-12-05T09:39:35.305Z,57.80
2022-12-05T09:40:35.215Z,58.90
2022-12-05T09:41:35.135Z,56.70
2022-12-05T09:42:35.046Z,53.20
2022-12-05T09:43:35.038Z,50.60
2022-12-05T09:44:34.946Z,51.30
2022-12-05T09:45:34.875Z,49.00
2022-12-05T09:46:35.883Z,52.80
2022-12-05T09:47:34.715Z,57.00
2022-12-05T09:48:34.652Z,55.60
2022-12-05T09:49:34.612Z,55.50
2022-12-05T09:50:34.528Z,52.50
2022-12-05T09:51:34.467Z,51.50
2022-12-05T09:54:52.828Z,48.40
2022-12-05T09:55:53.741Z,50.00
2022-12-05T09:56:53.665Z,48.80
2022-12-05T09:57:53.597Z,49.80
2022-12-05T09:58:53.501Z,48.00
2022-12-05T09:59:53.505Z,50.70
2022-12-05T10:00:53.399Z,48.70
2022-12-05T10:01:53.426Z,45.00
2022-12-05T10:02:53.291Z,43.40
2022-12-05T10:03:53.195Z,46.70
2022-12-05T10:04:57.121Z,47.20
2022-12-05T10:05:53.096Z,49.60
2022-12-05T10:06:53.004Z,50.00
2022-12-05T10:07:53.032Z,52.40
2022-12-05T10:08:52.874Z,51.90
2022-12-05T10:09:52.904Z,55.60
2022-12-05T10:10:52.745Z,53.90
2022-12-05T10:14:11.050Z,47.50
2022-12-05T10:15:11.965Z,50.70
2022-12-05T10:16:11.917Z,52.60
2022-12-05T10:17:11.809Z,52.30
2022-12-05T10:18:11.762Z,50.10
2022-12-05T10:19:11.752Z,47.10
2022-12-05T10:20:11.622Z,46.30
2022-12-05T10:21:11.565Z,43.20
2022-12-05T10:22:14.779Z,42.10
2022-12-05T10:23:23.123Z,41.10
2022-12-05T10:24:11.362Z,39.60
2022-12-05T10:25:11.360Z,40.20
2022-12-05T10:26:11.244Z,42.80
2022-12-05T10:27:11.478Z,43.70
2022-12-05T10:28:11.158Z,43.90
2022-12-05T10:29:11.057Z,45.60
2022-12-05T10:30:11.016Z,45.20
2022-12-05T10:31:11.078Z,55.00
2022-12-05T10:32:10.887Z,44.80
2022-12-05T10:33:10.761Z,39.30
2022-12-05T10:34:10.750Z,37.20
2022-12-05T10:35:10.679Z,30.20
2022-12-05T10:36:10.568Z,29.50
2022-12-05T10:37:10.571Z,32.70
2022-12-05T10:38:10.463Z,33.60
2022-12-05T10:39:11.665Z,36.00
2022-12-05T10:40:10.308Z,37.00
2022-12-05T10:41:10.907Z,40.20
2022-12-05T10:42:10.552Z,38.80
2022-12-05T10:43:10.157Z,36.80
2022-12-05T10:44:10.139Z,41.80
2022-12-05T10:45:10.007Z,40.70
2022-12-05T10:46:14.150Z,42.20
2022-12-05T10:47:09.974Z,42.20
2022-12-05T10:48:09.815Z,40.00
2022-12-05T10:49:09.776Z,35.00
2022-12-05T10:50:09.683Z,34.50
2022-12-05T10:51:09.651Z,33.80
2022-12-05T10:52:09.560Z,37.10
2022-12-05T10:53:09.461Z,35.70
2022-12-05T10:54:09.429Z,37.20
2022-12-05T10:55:09.366Z,37.70
2022-12-05T10:56:36.179Z,39.40
2022-12-05T10:57:09.277Z,41.40
2022-12-05T10:58:13.969Z,42.10
2022-12-05T10:59:09.109Z,41.00
2022-12-05T11:00:09.066Z,42.00
2022-12-05T11:01:09.647Z,40.30
2022-12-05T11:02:08.938Z,37.00
2022-12-05T11:03:08.893Z,40.10
2022-12-05T11:04:13.668Z,42.70
2022-12-05T11:05:08.774Z,41.50
2022-12-05T11:06:08.710Z,39.40
2022-12-05T11:07:08.619Z,41.30
2022-12-05T11:08:08.542Z,40.20
2022-12-05T11:09:08.457Z,38.70
2022-12-05T11:10:08.378Z,43.80
2022-12-05T11:11:08.304Z,47.50
2022-12-05T11:12:08.287Z,46.10
2022-12-05T11:13:08.938Z,49.20
2022-12-05T11:14:08.151Z,49.50
2022-12-05T11:15:08.102Z,53.70
2022-12-05T11:16:08.061Z,53.30
2022-12-05T11:17:07.937Z,56.40
2022-12-05T11:18:07.944Z,58.90
2022-12-05T11:19:07.834Z,54.90
2022-12-05T11:20:07.802Z,57.00
2022-12-05T11:21:07.669Z,58.20
2022-12-05T11:22:07.635Z,59.50
2022-12-05T11:23:07.540Z,59.50
2022-12-05T11:24:07.535Z,87.50
2022-12-05T11:25:07.410Z,57.20
2022-12-05T11:26:07.349Z,55.20
2022-12-05T11:27:07.521Z,56.10
2022-12-05T11:28:07.249Z,57.80
2022-12-05T11:29:07.204Z,56.00
2022-12-05T11:30:07.168Z,56.80
2022-12-05T11:31:07.059Z,57.30
2022-12-05T11:32:06.957Z,57.70
2022-12-05T11:33:06.890Z,58.30
2022-12-05T11:34:06.892Z,58.30
2022-12-05T11:35:06.745Z,60.50
2022-12-05T11:36:06.705Z,57.80
2022-12-05T11:37:06.703Z,56.10
2022-12-05T11:38:06.572Z,52.80
2022-12-05T11:39:06.513Z,54.90
2022-12-05T11:40:06.468Z,53.30
2022-12-05T11:41:06.360Z,55.70
2022-12-05T11:42:06.309Z,56.30
2022-12-05T11:43:06.283Z,53.00
2022-12-05T11:44:06.176Z,54.20
2022-12-05T11:45:06.233Z,53.60
2022-12-05T11:46:06.106Z,52.30
2022-12-05T11:47:06.048Z,55.40
2022-12-05T11:48:06.328Z,53.90
2022-12-05T11:49:05.860Z,54.80
2022-12-05T11:50:05.821Z,53.50
2022-12-05T11:51:05.764Z,52.10
2022-12-05T11:52:05.665Z,55.50
2022-12-05T11:53:05.595Z,54.70
2022-12-05T11:54:05.534Z,52.00
2022-12-05T11:55:06.420Z,49.30
2022-12-05T11:56:05.384Z,51.90
2022-12-05T11:57:05.368Z,51.40
2022-12-05T11:58:05.265Z,52.20
2022-12-05T11:59:05.219Z,54.00
2022-12-05T12:00:05.120Z,54.10
2022-12-05T12:01:07.642Z,53.70
2022-12-05T12:02:06.059Z,54.70
2022-12-05T12:03:05.120Z,54.00
2022-12-05T12:04:04.925Z,57.00
2022-12-05T12:05:04.843Z,57.00
2022-12-05T12:06:04.727Z,56.90
2022-12-05T12:07:06.936Z,56.90
2022-12-05T12:08:06.044Z,58.20
2022-12-05T12:09:06.830Z,58.20
2022-12-05T12:10:16.985Z,58.60
2022-12-05T12:12:42.021Z,60.40
2022-12-05T12:13:01.417Z,58.80
2022-12-05T12:13:49.745Z,60.40
2022-12-05T12:14:48.572Z,61.70
2022-12-05T12:15:48.176Z,62.90
2022-12-05T12:16:48.139Z,62.20
2022-12-05T12:17:48.024Z,61.20
2022-12-05T12:23:24.601Z,62.50
2022-12-05T12:24:25.518Z,63.00
2022-12-05T12:25:25.484Z,61.20
2022-12-05T12:26:25.428Z,62.10
2022-12-05T12:27:25.866Z,64.30
2022-12-05T12:28:25.339Z,61.90
2022-12-05T12:29:25.247Z,61.10
2022-12-05T12:30:25.177Z,60.10
2022-12-05T12:31:25.199Z,60.70
2022-12-05T12:32:25.221Z,60.10
2022-12-05T12:33:27.404Z,61.40
2022-12-05T12:34:25.289Z,61.40
2022-12-05T12:35:24.800Z,60.90
2022-12-05T12:36:24.738Z,57.40
2022-12-05T12:37:25.676Z,60.70
2022-12-05T12:38:24.979Z,54.90
2022-12-05T12:39:24.852Z,56.30
2022-12-05T12:40:25.135Z,58.20
2022-12-05T12:41:24.491Z,57.40
2022-12-05T12:42:25.619Z,57.00
2022-12-05T12:43:52.580Z,57.10
2022-12-05T12:44:25.463Z,57.90
2022-12-05T12:45:25.400Z,58.10
2022-12-05T12:46:25.465Z,56.60
2022-12-05T12:47:24.023Z,56.20
2022-12-05T12:48:23.991Z,60.00
2022-12-05T12:49:23.928Z,57.40
2022-12-05T12:50:23.916Z,57.30
2022-12-05T12:51:23.846Z,55.40
2022-12-05T12:52:23.840Z,56.50
2022-12-05T12:53:23.695Z,56.40
2022-12-05T12:54:47.078Z,59.00
2022-12-05T12:55:23.545Z,56.10
2022-12-05T12:56:23.468Z,57.20
2022-12-05T12:57:23.977Z,58.60
2022-12-05T12:58:23.342Z,58.20
2022-12-05T12:59:23.245Z,59.70
2022-12-05T13:00:23.276Z,55.50
2022-12-05T13:01:23.254Z,56.10
2022-12-05T13:02:23.159Z,58.40
2022-12-05T13:03:23.011Z,55.20
2022-12-05T13:04:22.999Z,56.80
2022-12-05T13:05:22.921Z,58.40
2022-12-05T13:06:22.826Z,58.00
2022-12-05T13:07:22.755Z,55.70
2022-12-05T13:08:22.747Z,58.00
2022-12-05T13:09:22.598Z,57.90